Time;durP1;ratioP1;P1;durP2;ratioP2;P2;SDS_P1;SDS_P2;PMS_P1;PMS_P2;Temp;Humidity;BMP_temperature;BMP_pressure;BME280_temperature;BME280_humidity;BME280_pressure;Samples;Min_cycle;Max_cycle;Signal;HPM_P1;HPM_P2
2022/06/27 00:00:16;;;;;;;5.60;4.00;;;19.60;99.90;;;;;;4993299;28;20608;-84
2022/06/27 00:02:42;;;;;;;5.07;3.87;;;19.60;99.90;;;;;;4993207;28;20307;-84
2022/06/27 00:05:09;;;;;;;11.50;4.40;;;19.60;88.20;;;;;;4993170;28;20185;-84
2022/06/27 00:07:35;;;;;;;3.93;3.53;;;19.60;1.00;;;;;;4987977;28;20694;-84
2022/06/27 00:10:01;;;;;;;5.60;3.33;;;19.60;1.00;;;;;;4984620;28;20485;-85
2022/06/27 00:12:26;;;;;;;5.53;3.70;;;19.60;1.00;;;;;;4993429;28;20511;-84
2022/06/27 00:14:52;;;;;;;4.57;3.63;;;19.60;1.00;;;;;;4993096;28;20272;-84
2022/06/27 00:17:17;;;;;;;3.70;3.33;;;19.60;1.00;;;;;;4992509;28;20215;-84
2022/06/27 00:19:43;;;;;;;4.70;3.40;;;19.60;99.90;;;;;;4994160;28;20183;-84
2022/06/27 00:22:09;;;;;;;3.90;3.50;;;19.60;99.90;;;;;;4994210;28;20365;-85
2022/06/27 00:24:35;;;;;;;5.47;3.50;;;19.60;99.90;;;;;;4990479;28;20180;-83
2022/06/27 00:27:00;;;;;;;6.70;3.70;;;19.60;99.90;;;;;;4992649;28;20439;-84
2022/06/27 00:29:26;;;;;;;5.87;3.87;;;19.60;1.00;;;;;;4991642;28;20542;-84
2022/06/27 00:31:52;;;;;;;7.13;4.20;;;19.50;1.00;;;;;;4991488;28;20201;-84
2022/06/27 00:34:17;;;;;;;5.50;4.20;;;19.50;1.00;;;;;;4991523;28;20194;-84
2022/06/27 00:36:43;;;;;;;8.30;4.57;;;19.50;1.00;;;;;;4992850;28;20203;-84
2022/06/27 00:39:09;;;;;;;7.70;4.53;;;19.50;1.00;;;;;;4995106;28;20468;-84
2022/06/27 00:41:35;;;;;;;4.97;4.47;;;19.50;1.00;;;;;;4994671;28;20254;-84
2022/06/27 00:44:01;;;;;;;9.50;5.37;;;19.50;1.00;;;;;;4996309;28;20202;-85
2022/06/27 00:46:28;;;;;;;7.87;5.60;;;19.50;1.00;;;;;;4995531;28;20211;-85
2022/06/27 00:48:54;;;;;;;7.70;4.70;;;19.40;1.00;;;;;;5053922;23;20603;-83
2022/06/27 00:51:19;;;;;;;7.50;4.60;;;19.40;1.00;;;;;;5040090;28;20429;-82
2022/06/27 00:53:45;;;;;;;7.00;5.07;;;19.40;1.00;;;;;;5037531;28;20182;-83
2022/06/27 00:56:11;;;;;;;10.07;5.40;;;19.40;1.00;;;;;;5040845;28;20190;-83
2022/06/27 00:58:37;;;;;;;6.73;5.63;;;19.40;1.00;;;;;;5030765;28;20681;-83
2022/06/27 01:01:03;;;;;;;6.67;5.30;;;19.50;1.00;;;;;;5024687;28;20473;-83
2022/06/27 01:03:28;;;;;;;9.73;6.73;;;19.50;1.00;;;;;;5027037;28;20193;-83
2022/06/27 01:05:54;;;;;;;10.10;5.97;;;19.50;1.00;;;;;;5026159;28;20573;-83
2022/06/27 01:08:25;;;;;;;7.97;6.83;;;19.50;1.00;;;;;;5025901;28;20210;-82
2022/06/27 01:10:51;;;;;;;8.40;6.47;;;19.50;1.00;;;;;;5026526;28;20437;-83
2022/06/27 01:13:17;;;;;;;9.60;5.80;;;19.50;1.00;;;;;;5030918;28;20465;-84
2022/06/27 01:15:44;;;;;;;7.83;5.80;;;19.50;1.00;;;;;;5029946;28;20427;-84
2022/06/27 01:18:11;;;;;;;7.00;6.10;;;19.50;1.00;;;;;;5029696;28;20229;-84
2022/06/27 01:20:40;;;;;;;11.50;6.50;;;19.50;1.00;;;;;;5029247;28;20475;-84
2022/06/27 01:23:06;;;;;;;8.20;7.07;;;19.50;1.00;;;;;;5030102;28;20428;-84
2022/06/27 01:25:35;;;;;;;10.47;9.07;;;19.50;1.00;;;;;;5029729;28;20482;-83
2022/06/27 01:28:01;;;;;;;10.03;7.67;;;19.50;1.00;;;;;;5029210;28;20442;-84
2022/06/27 01:30:26;;;;;;;10.67;8.40;;;19.50;1.00;;;;;;5029833;28;20422;-84
2022/06/27 01:32:52;;;;;;;10.70;9.07;;;19.50;1.00;;;;;;5030589;28;20452;-84
2022/06/27 01:35:18;;;;;;;10.77;7.63;;;19.50;1.00;;;;;;5029920;28;20196;-84
2022/06/27 01:37:44;;;;;;;9.03;7.33;;;19.50;1.00;;;;;;5030242;28;20209;-84
2022/06/27 01:40:10;;;;;;;14.00;8.20;;;19.50;11.50;;;;;;5029391;28;20214;-84
2022/06/27 01:42:36;;;;;;;10.87;6.90;;;19.50;37.40;;;;;;5030271;28;20428;-84
2022/06/27 01:45:02;;;;;;;9.23;7.83;;;19.50;93.30;;;;;;5029679;28;20199;-84
2022/06/27 01:47:29;;;;;;;12.60;7.70;;;19.50;99.90;;;;;;5029468;28;20527;-84
2022/06/27 01:49:55;;;;;;;11.10;7.27;;;19.50;99.90;;;;;;5015863;28;20437;-84
2022/06/27 01:52:21;;;;;;;12.43;9.07;;;19.40;99.90;;;;;;5021989;28;20492;-84
2022/06/27 01:54:46;;;;;;;9.73;8.70;;;19.40;99.90;;;;;;5022679;28;20189;-84
2022/06/27 01:57:16;;;;;;;13.27;9.43;;;19.40;99.90;;;;;;5016492;28;20220;-84
2022/06/27 01:59:42;;;;;;;14.10;10.13;;;19.40;99.90;;;;;;5022825;28;20200;-83
2022/06/27 02:02:07;;;;;;;13.70;9.50;;;19.40;1.00;;;;;;5015605;28;20471;-84
2022/06/27 02:04:34;;;;;;;9.70;8.67;;;19.40;1.00;;;;;;5018739;28;20463;-84
2022/06/27 02:07:01;;;;;;;10.70;8.63;;;19.40;1.00;;;;;;5026982;28;20182;-84
2022/06/27 02:09:27;;;;;;;12.07;7.60;;;19.40;1.00;;;;;;5026412;28;20970;-84
2022/06/27 02:11:55;;;;;;;9.70;8.60;;;19.40;1.00;;;;;;5027007;28;20437;-84
2022/06/27 02:14:21;;;;;;;9.03;8.13;;;19.40;1.00;;;;;;5028238;28;20198;-83
2022/06/27 02:16:46;;;;;;;11.93;9.70;;;19.40;44.80;;;;;;5026802;28;20493;-84
2022/06/27 02:19:16;;;;;;;12.57;9.10;;;19.40;99.90;;;;;;5027342;28;20209;-84
2022/06/27 02:21:43;;;;;;;10.97;9.33;;;19.40;99.90;;;;;;5025973;28;20550;-84
2022/06/27 02:24:09;;;;;;;15.00;10.93;;;19.40;99.90;;;;;;5027123;28;20429;-84
2022/06/27 02:26:36;;;;;;;13.53;11.43;;;19.40;99.90;;;;;;5019792;28;20434;-83
2022/06/27 02:29:02;;;;;;;12.80;10.53;;;19.40;1.00;;;;;;5015434;28;20822;-83
2022/06/27 02:31:28;;;;;;;14.20;11.00;;;19.40;1.00;;;;;;5022492;28;20432;-83
2022/06/27 02:33:54;;;;;;;13.60;10.50;;;19.40;1.00;;;;;;5027788;28;20444;-82
2022/06/27 02:36:30;;;;;;;12.23;9.30;;;19.40;1.00;;;;;;5027914;28;20439;-83
2022/06/27 02:38:57;;;;;;;10.97;9.50;;;19.40;1.00;;;;;;5026236;28;20803;-84
2022/06/27 02:41:31;;;;;;;10.33;8.30;;;19.40;1.00;;;;;;5020490;28;20463;-82
2022/06/27 02:44:04;;;;;;;11.50;9.33;;;19.40;1.00;;;;;;5018627;28;20444;-84
2022/06/27 02:46:30;;;;;;;12.13;10.10;;;19.40;1.00;;;;;;5025399;28;20434;-84
2022/06/27 02:48:57;;;;;;;11.80;9.97;;;19.40;20.40;;;;;;5025247;28;20482;-84
2022/06/27 02:51:25;;;;;;;10.73;9.63;;;19.40;65.00;;;;;;5025461;28;20212;-83
2022/06/27 02:53:51;;;;;;;10.83;9.73;;;19.40;99.90;;;;;;5025539;28;20476;-83
2022/06/27 02:56:25;;;;;;;12.03;10.83;;;19.40;99.90;;;;;;5022879;28;20459;-84
2022/06/27 02:59:03;;;;;;;13.50;10.20;;;19.40;99.90;;;;;;5011990;28;20214;-84
2022/06/27 03:01:30;;;;;;;15.00;11.00;;;19.30;99.90;;;;;;5019585;28;20552;-83
2022/06/27 03:03:58;;;;;;;12.67;9.17;;;19.20;99.90;;;;;;5018165;28;20424;-84
2022/06/27 03:06:24;;;;;;;11.20;10.00;;;19.20;1.00;;;;;;5025322;28;20422;-83
2022/06/27 03:08:50;;;;;;;12.97;10.60;;;19.10;99.90;;;;;;5025440;28;20485;-84
2022/06/27 03:11:17;;;;;;;11.37;10.20;;;19.00;1.00;;;;;;5025474;28;20190;-83
2022/06/27 03:13:45;;;;;;;14.50;9.90;;;18.90;99.90;;;;;;5025007;28;20468;-83
2022/06/27 03:16:11;;;;;;;14.20;9.83;;;18.90;99.90;;;;;;5024481;28;20434;-84
2022/06/27 03:18:37;;;;;;;10.33;9.23;;;18.80;1.00;;;;;;5025991;28;20512;-84
2022/06/27 03:21:03;;;;;;;10.80;9.30;;;18.80;99.90;;;;;;5024893;28;20464;-84
2022/06/27 03:23:28;;;;;;;18.53;10.70;;;18.80;99.90;;;;;;5025943;28;20185;-83
2022/06/27 03:25:54;;;;;;;16.80;10.30;;;18.80;99.90;;;;;;5025918;28;20188;-83
2022/06/27 03:28:20;;;;;;;17.93;10.13;;;18.90;99.90;;;;;;5025383;28;20209;-83
2022/06/27 03:30:45;;;;;;;14.27;11.27;;;18.80;1.00;;;;;;5021452;28;20281;-84
2022/06/27 03:33:11;;;;;;;15.77;10.90;;;18.90;1.00;;;;;;5011540;28;20221;-83
2022/06/27 03:35:37;;;;;;;12.30;10.30;;;18.90;1.00;;;;;;5018357;28;20205;-84
2022/06/27 03:38:03;;;;;;;10.13;9.13;;;18.90;1.00;;;;;;5018147;28;20447;-83
2022/06/27 03:40:28;;;;;;;12.53;11.03;;;19.00;1.00;;;;;;5013733;28;20195;-84
2022/06/27 03:42:54;;;;;;;13.30;10.50;;;19.00;1.00;;;;;;5009638;28;20209;-82
2022/06/27 03:45:19;;;;;;;12.93;11.50;;;19.00;1.00;;;;;;5011305;28;20212;-83
2022/06/27 03:47:51;;;;;;;17.10;11.80;;;19.00;1.00;;;;;;5019316;28;20224;-84
2022/06/27 03:50:21;;;;;;;11.20;10.03;;;19.00;1.00;;;;;;5025754;28;20188;-84
2022/06/27 03:52:47;;;;;;;17.20;11.90;;;19.00;1.00;;;;;;5026008;28;20423;-83
2022/06/27 03:55:13;;;;;;;12.80;11.20;;;19.00;1.00;;;;;;5025367;28;20482;-83
2022/06/27 03:57:46;;;;;;;14.03;12.30;;;19.00;1.00;;;;;;5025158;28;20203;-82
2022/06/27 04:00:12;;;;;;;16.13;12.07;;;19.00;1.00;;;;;;5024552;28;20188;-84
2022/06/27 04:02:38;;;;;;;14.70;11.80;;;19.00;1.00;;;;;;5024576;28;20217;-83
2022/06/27 04:05:04;;;;;;;13.93;10.30;;;19.00;1.00;;;;;;5024056;28;20439;-84
2022/06/27 04:07:30;;;;;;;13.37;12.07;;;19.10;1.00;;;;;;5024361;28;20197;-84
2022/06/27 04:09:57;;;;;;;12.57;11.27;;;19.10;99.90;;;;;;5006500;28;20462;-83
2022/06/27 04:12:22;;;;;;;13.20;10.83;;;19.10;99.90;;;;;;5013617;28;20284;-84
2022/06/27 04:14:48;;;;;;;14.47;11.40;;;19.20;99.90;;;;;;5023273;28;20436;-84
2022/06/27 04:17:13;;;;;;;18.70;12.97;;;19.20;99.90;;;;;;5015720;28;20202;-84
2022/06/27 04:19:39;;;;;;;13.13;11.70;;;19.20;99.90;;;;;;5016576;28;20189;-84
2022/06/27 04:22:05;;;;;;;13.33;11.30;;;19.20;99.90;;;;;;5026106;28;20282;-84
2022/06/27 04:24:30;;;;;;;13.00;10.30;;;19.30;99.90;;;;;;5026721;28;20491;-83
2022/06/27 04:26:57;;;;;;;12.53;11.30;;;19.30;99.90;;;;;;5026954;28;20787;-83
2022/06/27 04:29:23;;;;;;;13.20;11.67;;;19.40;99.90;;;;;;5026833;28;20561;-84
2022/06/27 04:31:49;;;;;;;12.70;10.80;;;19.40;57.70;;;;;;5027052;28;20436;-82
2022/06/27 04:34:15;;;;;;;14.40;10.90;;;19.40;1.00;;;;;;5028057;28;20189;-83
2022/06/27 04:36:41;;;;;;;13.90;11.40;;;19.40;1.00;;;;;;5027164;28;20444;-83
2022/06/27 04:39:07;;;;;;;14.93;11.93;;;19.50;1.00;;;;;;5019774;28;20216;-83
2022/06/27 04:41:33;;;;;;;13.50;11.10;;;19.50;99.90;;;;;;5021262;28;20217;-83
2022/06/27 04:43:59;;;;;;;18.30;11.40;;;19.60;99.90;;;;;;5014774;28;20435;-84
2022/06/27 04:46:24;;;;;;;18.53;12.30;;;19.70;1.00;;;;;;5013190;28;21165;-84
2022/06/27 04:48:51;;;;;;;13.60;10.67;;;19.70;1.00;;;;;;5019171;28;20712;-83
2022/06/27 04:51:16;;;;;;;11.70;10.53;;;19.80;1.00;;;;;;5018527;28;20202;-85
2022/06/27 04:53:44;;;;;;;15.20;11.77;;;20.00;99.90;;;;;;5013372;28;21005;-83
2022/06/27 04:56:11;;;;;;;11.33;10.17;;;20.10;11.10;;;;;;5026349;28;20194;-83
2022/06/27 04:58:37;;;;;;;13.20;11.70;;;20.30;99.90;;;;;;5026562;28;20457;-83
2022/06/27 05:01:03;;;;;;;17.20;13.80;;;20.40;67.40;;;;;;5027278;28;20495;-84
2022/06/27 05:03:28;;;;;;;20.77;18.57;;;20.50;1.00;;;;;;5027978;28;20201;-83
2022/06/27 05:05:54;;;;;;;21.00;17.67;;;20.50;1.00;;;;;;5027023;28;20425;-84
2022/06/27 05:08:20;;;;;;;20.90;16.00;;;20.60;99.90;;;;;;5024512;28;20202;-83
2022/06/27 05:10:46;;;;;;;17.60;15.70;;;20.70;99.90;;;;;;5026781;28;20209;-84
2022/06/27 05:13:13;;;;;;;28.47;21.60;;;20.90;10.10;;;;;;5020199;28;20563;-83
2022/06/27 05:15:39;;;;;;;24.60;19.07;;;21.00;1.00;;;;;;5022586;28;20508;-84
2022/06/27 05:18:05;;;;;;;16.23;13.33;;;21.20;1.00;;;;;;5013790;28;20442;-84
2022/06/27 05:20:30;;;;;;;19.37;15.00;;;21.40;99.90;;;;;;5018674;28;20440;-83
2022/06/27 05:22:57;;;;;;;19.97;14.00;;;21.50;99.90;;;;;;5017235;28;20245;-84
2022/06/27 05:25:23;;;;;;;16.50;12.27;;;21.50;99.90;;;;;;5013710;28;20430;-83
2022/06/27 05:27:49;;;;;;;13.37;11.77;;;21.50;99.90;;;;;;5024451;28;20465;-84
2022/06/27 05:30:15;;;;;;;14.67;12.13;;;21.40;99.90;;;;;;5019468;28;21003;-83
2022/06/27 05:32:41;;;;;;;16.43;11.67;;;21.40;99.90;;;;;;5015477;28;20434;-84
2022/06/27 05:35:08;;;;;;;14.80;13.30;;;21.30;99.90;;;;;;5014392;28;20187;-84
2022/06/27 05:37:38;;;;;;;14.73;13.20;;;21.20;99.90;;;;;;5017036;28;20861;-84
2022/06/27 05:40:06;;;;;;;12.40;11.20;;;21.00;99.90;;;;;;5020988;28;20433;-84
2022/06/27 05:42:34;;;;;;;12.43;10.83;;;20.80;99.90;;;;;;5027102;28;20567;-83
2022/06/27 05:45:01;;;;;;;15.03;13.53;;;20.70;1.00;;;;;;5013939;28;20463;-84
2022/06/27 05:47:27;;;;;;;13.70;11.70;;;20.50;1.00;;;;;;5026129;28;20552;-83
2022/06/27 05:49:53;;;;;;;15.03;13.03;;;20.50;99.90;;;;;;5025508;28;20429;-83
2022/06/27 05:52:18;;;;;;;16.80;13.37;;;20.40;99.90;;;;;;5024744;28;20434;-82
2022/06/27 05:54:45;;;;;;;15.57;12.90;;;20.40;99.90;;;;;;5024879;28;20574;-82
2022/06/27 05:57:11;;;;;;;13.53;12.03;;;20.40;99.90;;;;;;5025542;28;20228;-83
2022/06/27 05:59:37;;;;;;;15.50;13.00;;;20.40;1.00;;;;;;5026045;28;20447;-83
2022/06/27 06:02:04;;;;;;;16.60;13.43;;;20.50;1.00;;;;;;5024873;28;20487;-84
2022/06/27 06:04:30;;;;;;;17.33;13.33;;;20.50;1.00;;;;;;5023977;28;20499;-83
2022/06/27 06:06:56;;;;;;;13.33;11.93;;;20.60;99.90;;;;;;5024398;28;20421;-83
2022/06/27 06:09:21;;;;;;;14.13;12.63;;;20.70;99.90;;;;;;5025495;28;20430;-83
2022/06/27 06:11:48;;;;;;;14.50;13.00;;;20.80;99.90;;;;;;5024905;28;20189;-84
2022/06/27 06:14:16;;;;;;;14.57;12.57;;;20.90;8.40;;;;;;5024155;28;20190;-84
2022/06/27 06:16:43;;;;;;;13.17;11.60;;;21.10;1.00;;;;;;5025367;28;20802;-83
2022/06/27 06:19:09;;;;;;;19.00;12.77;;;21.30;1.00;;;;;;5024290;28;20468;-83
2022/06/27 06:21:35;;;;;;;17.40;12.30;;;21.50;99.90;;;;;;5022593;28;21015;-84
2022/06/27 06:24:01;;;;;;;13.70;11.20;;;21.60;99.90;;;;;;5013116;28;20433;-83
2022/06/27 06:26:27;;;;;;;20.37;12.57;;;21.70;85.60;;;;;;5018734;28;20179;-83
2022/06/27 06:28:53;;;;;;;15.57;13.43;;;21.70;1.00;;;;;;5019252;28;20431;-84
2022/06/27 06:31:22;;;;;;;13.73;11.73;;;21.60;1.00;;;;;;5016410;28;20278;-83
2022/06/27 06:33:53;;;;;;;16.17;13.33;;;21.60;1.00;;;;;;5015008;28;20434;-83
2022/06/27 06:36:21;;;;;;;14.60;12.90;;;21.50;1.00;;;;;;5013986;28;20504;-82
2022/06/27 06:38:47;;;;;;;15.67;13.53;;;21.50;1.00;;;;;;5018230;28;20540;-84
2022/06/27 06:41:14;;;;;;;14.13;11.30;;;21.60;1.00;;;;;;5016359;28;20537;-83
2022/06/27 06:43:40;;;;;;;16.13;13.40;;;21.70;1.00;;;;;;5011042;28;20429;-83
2022/06/27 06:46:06;;;;;;;15.43;12.03;;;21.80;1.00;;;;;;5014019;28;20453;-82
2022/06/27 06:48:32;;;;;;;14.70;13.20;;;22.00;1.00;;;;;;5017852;23;20494;-85
2022/06/27 06:50:58;;;;;;;15.83;11.87;;;22.20;1.00;;;;;;4993780;28;20414;-84
2022/06/27 06:53:23;;;;;;;12.90;11.53;;;22.40;1.00;;;;;;4993657;28;20422;-84
2022/06/27 06:55:50;;;;;;;13.20;10.90;;;22.60;99.90;;;;;;4993753;28;20794;-84
2022/06/27 06:58:17;;;;;;;13.80;12.40;;;22.70;99.90;;;;;;4976027;28;20211;-85
2022/06/27 07:00:43;;;;;;;17.00;12.53;;;22.80;99.90;;;;;;4976306;28;20466;-85
2022/06/27 07:03:10;;;;;;;17.90;13.63;;;23.00;99.90;;;;;;4976315;28;20441;-85
2022/06/27 07:05:36;;;;;;;16.00;12.47;;;23.10;38.50;;;;;;4995808;28;20415;-85
2022/06/27 07:08:02;;;;;;;13.60;12.27;;;23.10;1.00;;;;;;4992980;28;20456;-85
2022/06/27 07:10:28;;;;;;;14.17;12.67;;;23.00;1.00;;;;;;4993318;28;20201;-85
2022/06/27 07:12:54;;;;;;;19.07;11.93;;;22.90;1.00;;;;;;4993475;28;20428;-85
2022/06/27 07:15:20;;;;;;;13.33;11.83;;;22.80;1.00;;;;;;4993746;28;20216;-84
2022/06/27 07:17:51;;;;;;;16.53;12.10;;;22.70;1.00;;;;;;4993084;28;20988;-85
2022/06/27 07:20:20;;;;;;;16.00;12.60;;;22.70;1.00;;;;;;4993223;28;20185;-85
2022/06/27 07:22:50;;;;;;;16.50;11.20;;;22.70;1.00;;;;;;4975803;28;20503;-84
2022/06/27 07:25:17;;;;;;;15.50;12.13;;;22.80;1.00;;;;;;4976003;28;20536;-84
2022/06/27 07:27:43;;;;;;;14.83;11.63;;;22.80;1.00;;;;;;4974865;28;20457;-85
2022/06/27 07:30:11;;;;;;;12.47;11.17;;;22.90;1.00;;;;;;4986169;28;20425;-85
2022/06/27 07:32:39;;;;;;;12.33;11.13;;;23.00;1.00;;;;;;4983378;28;20429;-85
2022/06/27 07:35:05;;;;;;;12.43;11.00;;;23.10;1.00;;;;;;4963190;28;20804;-85
2022/06/27 07:37:33;;;;;;;14.57;10.73;;;23.10;1.00;;;;;;4983919;28;20433;-85
2022/06/27 07:39:59;;;;;;;12.60;11.30;;;23.30;1.00;;;;;;4981376;28;20943;-84
2022/06/27 07:42:24;;;;;;;23.67;12.50;;;23.40;1.00;;;;;;4984751;28;20478;-85
2022/06/27 07:44:50;;;;;;;13.60;11.50;;;23.30;1.00;;;;;;4988716;28;20194;-85
2022/06/27 07:47:16;;;;;;;11.90;10.13;;;23.20;1.00;;;;;;4994457;28;20244;-84
2022/06/27 07:49:41;;;;;;;11.57;9.80;;;23.10;1.00;;;;;;4996881;28;20209;-85
2022/06/27 07:52:07;;;;;;;15.73;11.83;;;23.00;1.00;;;;;;4979596;28;20661;-85
2022/06/27 07:54:32;;;;;;;16.90;11.50;;;22.90;1.00;;;;;;4996773;28;20197;-84
2022/06/27 07:57:00;;;;;;;14.73;11.30;;;22.70;1.00;;;;;;4996742;28;20189;-85
2022/06/27 07:59:25;;;;;;;13.43;12.07;;;22.60;1.00;;;;;;4998444;28;20203;-85
2022/06/27 08:01:52;;;;;;;13.33;11.70;;;22.40;1.00;;;;;;4981329;28;20494;-86
2022/06/27 08:04:18;;;;;;;14.03;11.70;;;22.30;1.00;;;;;;4988226;28;20189;-85
2022/06/27 08:06:46;;;;;;;12.47;10.53;;;22.30;1.00;;;;;;4990124;28;21056;-85
2022/06/27 08:09:12;;;;;;;14.77;11.60;;;22.30;1.00;;;;;;4987064;28;20434;-85
2022/06/27 08:11:43;;;;;;;13.63;11.57;;;22.50;1.00;;;;;;4965675;28;20816;-85
2022/06/27 08:14:12;;;;;;;15.50;9.93;;;22.60;1.00;;;;;;4988063;28;20201;-85
2022/06/27 08:16:40;;;;;;;13.50;10.20;;;22.70;1.00;;;;;;4990291;28;20451;-84
2022/06/27 08:19:07;;;;;;;12.93;10.60;;;22.90;1.00;;;;;;4968355;28;20458;-85
2022/06/27 08:21:34;;;;;;;15.20;10.40;;;22.90;1.00;;;;;;4991144;28;20460;-85
2022/06/27 08:24:01;;;;;;;11.80;10.60;;;23.00;1.00;;;;;;4967292;28;21048;-85
2022/06/27 08:26:28;;;;;;;13.97;9.53;;;22.90;1.00;;;;;;4983416;28;20429;-85
2022/06/27 08:28:55;;;;;;;13.57;10.90;;;22.80;1.00;;;;;;4989139;28;20453;-85
2022/06/27 08:31:21;;;;;;;13.10;11.27;;;22.80;1.00;;;;;;4988735;28;20924;-85
2022/06/27 08:33:49;;;;;;;14.37;11.90;;;22.90;1.00;;;;;;4966837;28;20527;-85
2022/06/27 08:36:17;;;;;;;13.37;11.70;;;22.90;1.00;;;;;;4975006;28;20201;-85
2022/06/27 08:38:45;;;;;;;13.33;11.63;;;23.00;1.00;;;;;;4996362;28;20823;-85
2022/06/27 08:41:12;;;;;;;12.77;11.20;;;23.10;1.00;;;;;;4990861;28;20461;-85
2022/06/27 08:43:38;;;;;;;12.67;10.83;;;23.10;1.00;;;;;;4984662;28;20431;-85
2022/06/27 08:46:06;;;;;;;16.50;10.70;;;23.10;1.00;;;;;;4986123;28;20428;-85
2022/06/27 08:48:34;;;;;;;12.07;10.90;;;23.00;1.00;;;;;;4971268;28;20697;-85
2022/06/27 08:51:02;;;;;;;16.00;11.37;;;23.00;1.00;;;;;;4964287;28;20497;-85
2022/06/27 08:53:28;;;;;;;11.23;10.10;;;22.90;1.00;;;;;;4992456;28;20875;-85
2022/06/27 08:55:54;;;;;;;15.80;10.70;;;23.00;1.00;;;;;;4996129;28;20436;-85
2022/06/27 08:58:23;;;;;;;11.23;10.13;;;23.00;1.00;;;;;;4995446;28;20450;-84
2022/06/27 09:00:48;;;;;;;16.40;11.20;;;23.20;1.00;;;;;;4996967;28;20215;-85
2022/06/27 09:03:18;;;;;;;17.83;13.07;;;23.30;1.00;;;;;;5003981;28;20426;-85
2022/06/27 09:06:02;;;;;;;13.77;12.37;;;23.40;1.00;;;;;;4996245;28;20181;-84
2022/06/27 09:08:32;;;;;;;13.23;11.70;;;23.40;1.00;;;;;;4984889;28;20879;-84
2022/06/27 09:10:59;;;;;;;15.30;11.63;;;23.40;1.00;;;;;;4991205;28;20524;-84
2022/06/27 09:13:26;;;;;;;15.37;11.03;;;23.50;1.00;;;;;;4996621;28;20819;-84
2022/06/27 09:15:52;;;;;;;13.00;11.80;;;23.50;1.00;;;;;;4996719;28;20457;-85
2022/06/27 09:18:20;;;;;;;13.40;10.13;;;23.50;1.00;;;;;;4978597;28;20489;-84
2022/06/27 09:20:59;;;;;;;15.37;11.53;;;23.40;1.00;;;;;;4996066;28;20198;-84
2022/06/27 09:23:50;;;;;;;14.07;11.30;;;23.30;1.00;;;;;;4996708;28;20460;-84
2022/06/27 09:26:22;;;;;;;13.20;11.00;;;23.30;1.00;;;;;;4996003;28;20482;-84
2022/06/27 09:28:53;;;;;;;15.60;12.83;;;23.20;1.00;;;;;;4995183;28;20433;-84
2022/06/27 09:31:30;;;;;;;16.77;11.97;;;23.30;1.00;;;;;;4996602;28;20424;-84
2022/06/27 09:34:16;;;;;;;13.93;11.83;;;23.30;1.00;;;;;;4978080;28;20425;-85
2022/06/27 09:36:55;;;;;;;16.00;11.40;;;23.40;1.00;;;;;;4989712;28;20421;-85
2022/06/27 09:39:39;;;;;;;20.20;11.83;;;23.30;1.00;;;;;;4985980;28;20444;-85
2022/06/27 09:42:11;;;;;;;13.27;11.87;;;23.30;1.00;;;;;;4992031;28;20563;-85
2022/06/27 09:44:44;;;;;;;13.80;11.50;;;23.30;1.00;;;;;;4977740;28;20469;-85
2022/06/27 09:47:11;;;;;;;13.80;12.00;;;23.30;1.00;;;;;;4995413;28;20457;-85
2022/06/27 09:49:43;;;;;;;14.77;12.50;;;23.30;1.00;;;;;;4995316;28;20467;-84
2022/06/27 09:52:11;;;;;;;13.10;11.10;;;23.30;1.00;;;;;;4995746;28;20429;-84
2022/06/27 09:54:40;;;;;;;14.60;12.63;;;23.30;1.00;;;;;;4995467;28;20501;-84
2022/06/27 09:57:07;;;;;;;13.93;12.17;;;23.30;1.00;;;;;;4995153;28;20509;-85
2022/06/27 09:59:34;;;;;;;17.27;12.27;;;23.40;1.00;;;;;;4977568;28;20882;-84
2022/06/27 10:02:01;;;;;;;14.10;12.60;;;23.60;99.90;;;;;;4998993;28;20901;-84
2022/06/27 10:04:28;;;;;;;12.90;11.57;;;23.80;99.90;;;;;;5001343;28;20427;-85
2022/06/27 10:06:54;;;;;;;13.30;11.90;;;24.00;99.90;;;;;;4997662;28;20445;-84
2022/06/27 10:09:24;;;;;;;14.67;13.13;;;24.30;99.90;;;;;;4995169;28;20453;-84
2022/06/27 10:12:24;;;;;;;13.77;11.83;;;24.50;99.90;;;;;;4994892;28;20416;-84
2022/06/27 10:15:12;;;;;;;13.83;12.53;;;24.70;99.90;;;;;;4977460;28;20429;-84
2022/06/27 10:17:58;;;;;;;12.73;11.23;;;24.70;99.90;;;;;;4988716;28;20995;-84
2022/06/27 10:20:27;;;;;;;13.37;11.80;;;24.90;99.90;;;;;;4993070;28;20420;-84
2022/06/27 10:23:31;;;;;;;14.90;13.33;;;25.10;99.90;;;;;;4994565;28;20939;-84
2022/06/27 10:25:57;;;;;;;14.03;11.53;;;25.30;99.90;;;;;;4989327;28;20428;-84
2022/06/27 10:28:24;;;;;;;12.63;10.20;;;25.80;99.90;;;;;;4993022;28;20441;-84
2022/06/27 10:31:00;;;;;;;12.27;11.00;;;26.10;99.90;;;;;;4994654;28;20421;-84
2022/06/27 10:33:25;;;;;;;19.27;12.17;;;26.60;99.90;;;;;;4994045;28;20437;-84
2022/06/27 10:35:54;;;;;;;12.20;10.90;;;27.10;99.90;;;;;;4994916;28;20423;-84
2022/06/27 10:38:21;;;;;;;11.93;9.73;;;27.40;99.90;;;;;;4993888;28;20195;-84
2022/06/27 10:40:47;;;;;;;10.13;8.90;;;27.30;99.90;;;;;;4989563;28;20462;-84
2022/06/27 10:43:45;;;;;;;14.20;8.87;;;27.20;99.90;;;;;;4980435;28;20482;-84
2022/06/27 10:46:10;;;;;;;11.33;8.60;;;27.10;99.90;;;;;;4989895;28;20183;-84
2022/06/27 10:48:45;;;;;;;9.97;9.13;;;27.00;99.90;;;;;;4993941;28;20525;-85
2022/06/27 10:51:22;;;;;;;9.27;8.27;;;27.00;99.90;;;;;;4976995;28;20282;-85
2022/06/27 10:53:50;;;;;;;8.77;7.90;;;27.00;99.90;;;;;;5008003;28;20439;-84
2022/06/27 10:56:32;;;;;;;12.00;10.20;;;27.10;99.90;;;;;;4990081;28;20410;-84
2022/06/27 10:59:02;;;;;;;15.00;12.30;;;27.40;99.90;;;;;;4998170;28;20840;-86
2022/06/27 11:01:28;;;;;;;15.87;10.37;;;27.60;99.90;;;;;;5001245;28;20466;-84
2022/06/27 11:03:54;;;;;;;17.13;10.70;;;28.00;99.90;;;;;;4994085;28;20431;-85
2022/06/27 11:06:21;;;;;;;11.37;10.30;;;28.60;99.90;;;;;;4993761;28;20419;-82
2022/06/27 11:08:48;;;;;;;12.63;10.40;;;29.20;99.90;;;;;;4994572;28;20456;-85
2022/06/27 11:11:27;;;;;;;9.80;8.80;;;30.10;99.90;;;;;;4977766;28;20489;-86
2022/06/27 11:13:59;;;;;;;12.00;10.90;;;30.60;99.90;;;;;;4995089;28;20493;-84
2022/06/27 11:16:28;;;;;;;13.40;10.53;;;30.90;99.90;;;;;;4994854;28;20485;-84
2022/06/27 11:18:59;;;;;;;10.70;9.53;;;31.20;99.90;;;;;;4994195;28;20453;-85
2022/06/27 11:21:29;;;;;;;12.07;9.00;;;31.50;99.90;;;;;;4992905;28;20466;-84
2022/06/27 11:24:02;;;;;;;11.70;10.60;;;31.40;99.90;;;;;;4993096;28;21013;-84
2022/06/27 11:26:33;;;;;;;13.03;10.07;;;31.30;99.90;;;;;;4989279;28;20927;-84
2022/06/27 11:31:59;;;;;;;14.50;10.83;;;30.80;99.90;;;;;;4992904;28;20421;-85
2022/06/27 11:34:30;;;;;;;16.17;10.70;;;30.30;99.90;;;;;;4992662;28;20419;-84
2022/06/27 11:36:58;;;;;;;9.17;8.27;;;30.00;99.90;;;;;;4990132;28;20479;-84
2022/06/27 11:39:25;;;;;;;9.37;8.50;;;29.60;99.90;;;;;;4992749;28;20442;-84
2022/06/27 11:41:56;;;;;;;11.63;9.20;;;29.20;99.90;;;;;;4990343;28;20466;-84
2022/06/27 11:44:22;;;;;;;11.53;9.00;;;28.90;99.90;;;;;;4988910;28;20957;-83
2022/06/27 11:46:49;;;;;;;10.00;6.40;;;28.80;99.90;;;;;;4986274;28;20415;-85
2022/06/27 11:49:18;;;;;;;7.57;5.90;;;28.50;99.90;;;;;;4983773;28;20457;-84
2022/06/27 11:51:47;;;;;;;6.87;5.63;;;28.20;99.90;;;;;;4992513;28;20458;-84
2022/06/27 11:54:15;;;;;;;6.87;5.63;;;27.90;99.90;;;;;;4993634;28;20433;-84
2022/06/27 11:56:47;;;;;;;5.80;4.67;;;27.70;99.90;;;;;;4993307;28;20421;-84
2022/06/27 11:59:14;;;;;;;6.80;5.03;;;27.70;99.90;;;;;;4998277;28;20520;-84
2022/06/27 12:01:50;;;;;;;6.37;5.50;;;27.60;99.90;;;;;;4994743;28;20508;-84
2022/06/27 12:04:17;;;;;;;6.07;5.47;;;27.50;99.90;;;;;;4976080;28;20426;-84
2022/06/27 12:06:47;;;;;;;9.27;6.97;;;27.50;99.90;;;;;;4992438;28;20506;-84
2022/06/27 12:09:13;;;;;;;8.67;7.37;;;27.60;99.90;;;;;;4976146;28;20462;-84
2022/06/27 12:11:57;;;;;;;12.47;6.80;;;27.90;99.90;;;;;;4976327;28;20431;-84
2022/06/27 12:14:23;;;;;;;7.63;6.90;;;28.30;99.90;;;;;;4994185;28;20194;-84
2022/06/27 12:16:55;;;;;;;7.33;6.63;;;28.70;99.90;;;;;;4993435;28;20437;-84
2022/06/27 12:19:22;;;;;;;9.50;7.40;;;29.00;99.90;;;;;;4985199;28;20509;-84
2022/06/27 12:21:48;;;;;;;10.80;5.93;;;29.50;99.90;;;;;;4970532;28;20470;-83
2022/06/27 12:24:14;;;;;;;8.77;7.97;;;29.60;99.90;;;;;;4967890;28;20795;-83
2022/06/27 12:26:40;;;;;;;10.37;7.20;;;29.90;99.90;;;;;;4994632;28;20437;-83
2022/06/27 12:29:06;;;;;;;10.30;8.00;;;30.30;99.90;;;;;;4995937;28;20514;-82
2022/06/27 12:31:34;;;;;;;9.30;8.20;;;30.30;99.90;;;;;;4993287;28;20192;-84
2022/06/27 12:34:00;;;;;;;8.97;8.07;;;30.60;99.90;;;;;;4988126;28;20461;-84
2022/06/27 12:36:28;;;;;;;8.80;7.90;;;30.60;99.90;;;;;;4979469;28;20438;-84
2022/06/27 12:38:54;;;;;;;10.70;8.57;;;30.30;99.90;;;;;;4996599;28;20592;-83
2022/06/27 12:41:19;;;;;;;12.83;8.33;;;30.10;99.90;;;;;;4990852;28;20554;-83
2022/06/27 12:43:46;;;;;;;9.50;8.60;;;30.00;99.90;;;;;;4984756;28;20226;-83